createdAt,value
2023-08-29T00:02:18.342Z,44.41
2023-08-29T00:04:45.198Z,44.54
2023-08-29T00:07:12.079Z,44.30
2023-08-29T00:09:39.078Z,44.51
2023-08-29T00:12:06.389Z,44.58
2023-08-29T00:14:33.268Z,44.46
2023-08-29T00:17:00.160Z,44.58
2023-08-29T00:19:27.073Z,44.44
2023-08-29T00:21:53.932Z,44.38
2023-08-29T00:24:21.010Z,44.42
2023-08-29T00:26:47.922Z,44.26
2023-08-29T00:29:14.763Z,44.22
2023-08-29T00:31:41.706Z,44.31
2023-08-29T00:34:08.877Z,44.45
2023-08-29T00:36:35.769Z,44.34
2023-08-29T00:39:03.938Z,44.28
2023-08-29T00:41:31.851Z,44.38
2023-08-29T00:43:58.774Z,44.22
2023-08-29T00:46:27.226Z,44.12
2023-08-29T00:48:56.217Z,44.29
2023-08-29T00:51:24.915Z,44.30
2023-08-29T00:53:51.947Z,44.20
2023-08-29T00:56:19.243Z,44.22
2023-08-29T00:58:46.752Z,44.17
2023-08-29T01:01:18.177Z,44.39
2023-08-29T01:03:46.632Z,44.18
2023-08-29T01:06:16.903Z,44.00
2023-08-29T01:08:47.186Z,44.04
2023-08-29T01:11:26.929Z,44.01
2023-08-29T01:14:37.075Z,43.77
2023-08-29T01:17:12.180Z,43.79
2023-08-29T01:19:43.206Z,44.01
2023-08-29T01:22:28.740Z,44.00
2023-08-29T01:25:35.632Z,43.71
2023-08-29T01:28:04.102Z,44.01
2023-08-29T01:30:33.812Z,44.08
2023-08-29T01:33:01.461Z,43.92
2023-08-29T01:35:28.446Z,43.94
2023-08-29T01:37:55.347Z,43.89
2023-08-29T01:40:23.950Z,43.76
2023-08-29T01:42:51.541Z,43.79
2023-08-29T01:45:18.514Z,43.94
2023-08-29T01:47:45.484Z,43.93
2023-08-29T01:50:14.827Z,43.89
2023-08-29T01:52:42.217Z,43.97
2023-08-29T01:55:09.485Z,43.94
2023-08-29T01:57:37.528Z,43.89
2023-08-29T02:00:05.706Z,43.93
2023-08-29T02:02:41.437Z,43.79
2023-08-29T02:05:09.076Z,43.86
2023-08-29T02:07:36.547Z,43.78
2023-08-29T02:10:04.091Z,43.82
2023-08-29T02:12:30.957Z,43.75
2023-08-29T02:14:57.863Z,43.72
2023-08-29T02:17:24.941Z,43.70
2023-08-29T02:19:51.914Z,43.78
2023-08-29T02:22:18.868Z,43.78
2023-08-29T02:24:48.798Z,43.72
2023-08-29T02:27:15.834Z,43.74
2023-08-29T02:29:42.778Z,43.80
2023-08-29T02:32:09.744Z,43.74
2023-08-29T02:34:36.726Z,43.80
2023-08-29T02:37:04.184Z,43.66
2023-08-29T02:39:31.652Z,43.78
2023-08-29T02:41:58.858Z,43.77
2023-08-29T02:44:27.488Z,43.79
2023-08-29T02:46:54.695Z,43.63
2023-08-29T02:49:21.865Z,43.69
2023-08-29T02:51:49.549Z,43.61
2023-08-29T02:54:16.493Z,43.62
2023-08-29T02:56:46.657Z,43.62
2023-08-29T02:59:13.857Z,43.55
2023-08-29T03:01:40.747Z,43.56
2023-08-29T03:04:07.740Z,43.56
2023-08-29T03:06:36.709Z,43.55
2023-08-29T03:09:04.420Z,43.69
2023-08-29T03:11:31.366Z,43.41
2023-08-29T03:13:59.251Z,43.57
2023-08-29T03:16:26.203Z,43.35
2023-08-29T03:18:53.417Z,43.40
2023-08-29T03:21:20.457Z,43.50
2023-08-29T03:23:47.476Z,43.41
2023-08-29T03:26:14.422Z,43.48
2023-08-29T03:28:42.881Z,43.39
2023-08-29T03:31:18.111Z,43.51
2023-08-29T03:33:46.191Z,43.37
2023-08-29T03:36:13.298Z,43.18
2023-08-29T03:38:43.191Z,43.34
2023-08-29T03:41:10.214Z,43.22
2023-08-29T03:43:37.844Z,43.23
2023-08-29T03:46:07.804Z,43.41
2023-08-29T03:48:37.173Z,43.26
2023-08-29T03:51:07.761Z,43.32
2023-08-29T03:53:39.183Z,43.34
2023-08-29T03:56:10.652Z,42.74
2023-08-29T03:58:38.048Z,43.34
2023-08-29T04:01:05.720Z,43.22
2023-08-29T04:03:33.562Z,43.32
2023-08-29T04:06:02.630Z,43.18
2023-08-29T04:08:29.666Z,43.17
2023-08-29T04:10:57.997Z,43.41
2023-08-29T04:13:25.354Z,43.31
2023-08-29T04:15:52.310Z,43.17
2023-08-29T04:18:19.294Z,43.20
2023-08-29T04:20:46.219Z,43.21
2023-08-29T04:23:13.483Z,43.15
2023-08-29T04:25:40.421Z,43.20
2023-08-29T04:28:08.034Z,43.31
2023-08-29T04:30:36.580Z,43.40
2023-08-29T04:33:04.486Z,43.24
2023-08-29T04:35:31.521Z,43.08
2023-08-29T04:37:58.565Z,43.17
2023-08-29T04:40:25.477Z,43.44
2023-08-29T04:42:52.798Z,43.05
2023-08-29T04:45:20.812Z,43.09
2023-08-29T04:47:48.603Z,43.03
2023-08-29T04:50:16.216Z,43.12
2023-08-29T04:52:43.758Z,43.18
2023-08-29T04:55:11.481Z,42.93
2023-08-29T04:57:38.676Z,43.03
2023-08-29T05:00:08.044Z,43.10
2023-08-29T05:02:35.107Z,43.19
2023-08-29T05:05:02.210Z,43.05
2023-08-29T05:07:29.116Z,43.03
2023-08-29T05:09:57.219Z,43.13
2023-08-29T05:12:24.598Z,43.00
2023-08-29T05:14:54.844Z,43.03
2023-08-29T05:17:22.392Z,43.04
2023-08-29T05:19:50.666Z,42.99
2023-08-29T05:22:17.840Z,42.93
2023-08-29T05:24:44.871Z,42.98
2023-08-29T05:27:11.755Z,42.84
2023-08-29T05:29:40.047Z,43.11
2023-08-29T05:32:07.213Z,42.97
2023-08-29T05:34:34.447Z,42.91
2023-08-29T05:37:01.632Z,42.94
2023-08-29T05:39:28.504Z,42.80
2023-08-29T05:41:55.413Z,42.71
2023-08-29T05:44:22.287Z,42.64
2023-08-29T05:46:49.205Z,42.69
2023-08-29T05:49:17.535Z,42.79
2023-08-29T05:51:44.453Z,42.64
2023-08-29T05:54:11.465Z,42.61
2023-08-29T05:56:39.089Z,42.71
2023-08-29T05:59:06.794Z,42.80
2023-08-29T06:01:36.340Z,42.74
2023-08-29T06:04:05.663Z,42.60
2023-08-29T06:06:33.078Z,42.89
2023-08-29T06:09:00.479Z,42.68
2023-08-29T06:11:30.232Z,42.81
2023-08-29T06:13:57.100Z,42.71
2023-08-29T06:16:24.055Z,42.75
2023-08-29T06:18:51.041Z,42.79
2023-08-29T06:21:18.395Z,42.69
2023-08-29T06:23:45.303Z,42.66
2023-08-29T06:26:12.421Z,42.69
2023-08-29T06:28:39.392Z,42.76
2023-08-29T06:31:08.928Z,42.70
2023-08-29T06:33:38.009Z,42.67
2023-08-29T06:36:05.282Z,42.66
2023-08-29T06:38:34.111Z,42.67
2023-08-29T06:41:04.179Z,42.69
2023-08-29T06:43:31.580Z,42.80
2023-08-29T06:45:58.540Z,42.76
2023-08-29T06:48:25.420Z,42.80
2023-08-29T06:50:52.416Z,42.82
2023-08-29T06:53:19.329Z,42.86
2023-08-29T06:55:51.153Z,42.77
2023-08-29T06:58:18.153Z,42.89
2023-08-29T07:00:45.106Z,42.79
2023-08-29T07:03:13.437Z,42.99
2023-08-29T07:05:40.877Z,42.97
2023-08-29T07:08:08.369Z,42.83
2023-08-29T07:10:35.654Z,42.95
2023-08-29T07:13:02.655Z,42.87
2023-08-29T07:15:29.563Z,42.85
2023-08-29T07:17:56.638Z,42.83
2023-08-29T07:20:23.666Z,42.83
2023-08-29T07:22:50.576Z,42.77
2023-08-29T07:25:19.326Z,42.91
2023-08-29T07:27:46.247Z,42.91
2023-08-29T07:30:16.510Z,42.65
2023-08-29T07:32:45.326Z,42.93
2023-08-29T07:35:12.468Z,42.84
2023-08-29T07:37:39.362Z,42.81
2023-08-29T07:40:06.817Z,42.58
2023-08-29T07:42:33.716Z,42.72
2023-08-29T07:45:00.958Z,42.81
2023-08-29T07:47:28.174Z,42.87
2023-08-29T07:49:55.056Z,42.88
2023-08-29T07:52:22.001Z,42.65
2023-08-29T07:54:48.919Z,42.83
2023-08-29T07:57:15.876Z,42.79
2023-08-29T07:59:43.020Z,42.70
2023-08-29T08:02:10.060Z,42.71
2023-08-29T08:04:38.137Z,42.72
2023-08-29T08:07:05.280Z,42.69
2023-08-29T08:09:32.698Z,42.96
2023-08-29T08:11:59.666Z,42.79
2023-08-29T08:14:26.527Z,43.04
2023-08-29T08:16:53.488Z,42.75
2023-08-29T08:19:20.477Z,42.80
2023-08-29T08:21:48.886Z,42.99
2023-08-29T08:24:17.823Z,42.74
2023-08-29T08:26:44.909Z,42.98
2023-08-29T08:29:11.822Z,42.91
2023-08-29T08:31:39.276Z,42.92
2023-08-29T08:34:06.170Z,42.76
2023-08-29T08:36:33.133Z,42.83
2023-08-29T08:38:59.991Z,42.78
2023-08-29T08:41:27.197Z,42.91
2023-08-29T08:43:56.583Z,43.07
2023-08-29T08:46:24.052Z,42.88
2023-08-29T08:48:51.367Z,42.91
2023-08-29T08:51:22.216Z,43.12
2023-08-29T08:53:54.026Z,43.18
2023-08-29T08:56:21.626Z,43.33
2023-08-29T08:58:48.754Z,43.11
2023-08-29T09:01:15.719Z,43.05
2023-08-29T09:03:44.569Z,43.34
2023-08-29T09:06:14.005Z,43.22
2023-08-29T09:08:41.531Z,43.15
2023-08-29T09:11:09.775Z,43.03
2023-08-29T09:13:45.962Z,43.03
2023-08-29T09:16:13.807Z,43.17
2023-08-29T09:18:44.950Z,43.16
2023-08-29T09:21:20.118Z,43.13
2023-08-29T09:23:47.150Z,43.28
2023-08-29T09:26:14.849Z,43.09
2023-08-29T09:28:42.147Z,43.21
2023-08-29T09:31:11.992Z,43.37
2023-08-29T09:33:40.425Z,43.42
2023-08-29T09:36:08.123Z,43.34
2023-08-29T09:38:36.203Z,43.39
2023-08-29T09:41:03.594Z,43.43
2023-08-29T09:43:31.637Z,43.35
2023-08-29T09:46:00.566Z,43.45
2023-08-29T09:48:29.182Z,43.41
2023-08-29T09:50:59.737Z,43.38
2023-08-29T09:53:29.995Z,43.65
2023-08-29T09:56:10.944Z,43.52
2023-08-29T09:58:39.999Z,43.69
2023-08-29T10:01:10.665Z,43.54
2023-08-29T10:03:41.367Z,43.89
2023-08-29T10:06:12.679Z,43.86
2023-08-29T10:08:56.274Z,44.08
2023-08-29T10:11:24.468Z,44.26
2023-08-29T10:13:52.081Z,44.46
2023-08-29T10:16:20.471Z,44.34
2023-08-29T10:18:49.766Z,44.33
2023-08-29T10:21:19.325Z,44.47
2023-08-29T10:23:47.557Z,44.35
2023-08-29T10:26:15.513Z,44.66
2023-08-29T10:28:44.074Z,44.81
2023-08-29T10:31:12.354Z,44.64
2023-08-29T10:33:39.455Z,44.76
2023-08-29T10:36:10.495Z,44.82
2023-08-29T10:38:41.207Z,44.56
2023-08-29T10:41:08.204Z,44.83
2023-08-29T10:43:36.809Z,44.95
2023-08-29T10:46:13.172Z,44.68
2023-08-29T10:48:40.211Z,44.84
2023-08-29T10:51:12.480Z,44.92
2023-08-29T10:53:54.588Z,44.79
2023-08-29T10:56:39.437Z,44.87
2023-08-29T10:59:07.165Z,44.80
2023-08-29T11:01:34.910Z,44.71
2023-08-29T11:04:13.830Z,44.89
2023-08-29T11:06:55.440Z,44.69
2023-08-29T11:09:24.896Z,44.77
2023-08-29T11:12:14.115Z,44.68
2023-08-29T11:14:56.252Z,44.48
2023-08-29T11:17:24.889Z,44.86
2023-08-29T11:19:59.881Z,44.91
2023-08-29T11:22:30.328Z,44.80
2023-08-29T11:24:58.790Z,44.51
2023-08-29T11:27:30.234Z,44.84
2023-08-29T11:30:19.572Z,44.57
2023-08-29T11:32:52.710Z,44.34
2023-08-29T11:35:19.875Z,44.63
2023-08-29T11:37:46.766Z,44.71
2023-08-29T11:40:17.989Z,44.31
2023-08-29T11:43:12.662Z,44.25
2023-08-29T11:45:47.130Z,44.26
2023-08-29T11:48:32.464Z,44.22
2023-08-29T11:51:09.146Z,44.14
2023-08-29T11:53:39.936Z,44.11
2023-08-29T11:56:11.119Z,44.16
2023-08-29T11:58:40.186Z,44.05
2023-08-29T12:01:09.137Z,44.10
2023-08-29T12:03:38.553Z,44.23
2023-08-29T12:06:12.719Z,44.00
2023-08-29T12:08:45.647Z,44.16
2023-08-29T12:11:16.383Z,43.97
2023-08-29T12:14:01.651Z,44.17
2023-08-29T12:16:29.673Z,43.94
2023-08-29T12:19:14.974Z,43.89
2023-08-29T12:21:41.904Z,44.03
2023-08-29T12:24:13.243Z,44.13
2023-08-29T12:26:40.168Z,43.75
2023-08-29T12:29:07.082Z,43.82
2023-08-29T12:31:34.863Z,43.66
2023-08-29T12:34:01.908Z,43.89
2023-08-29T12:36:28.809Z,43.78
2023-08-29T12:38:55.712Z,43.76
2023-08-29T12:41:23.829Z,43.75
2023-08-29T12:43:50.759Z,43.91
2023-08-29T12:46:17.780Z,43.76
2023-08-29T12:48:44.727Z,44.02
2023-08-29T12:51:12.034Z,43.62
2023-08-29T12:53:38.952Z,43.67
2023-08-29T12:56:05.976Z,43.52
2023-08-29T12:58:32.878Z,43.74
2023-08-29T13:00:59.813Z,43.72
2023-08-29T13:03:26.835Z,43.64
2023-08-29T13:05:54.472Z,43.48
2023-08-29T13:08:21.352Z,43.49
2023-08-29T13:10:48.330Z,43.37
2023-08-29T13:13:15.314Z,43.50
2023-08-29T13:15:50.859Z,43.50
2023-08-29T13:18:19.695Z,43.32
2023-08-29T13:20:46.800Z,43.63
2023-08-29T13:23:13.841Z,43.41
2023-08-29T13:25:40.901Z,43.37
2023-08-29T13:28:08.147Z,43.64
2023-08-29T13:30:36.216Z,43.54
2023-08-29T13:33:04.452Z,43.50
2023-08-29T13:35:31.548Z,43.38
2023-08-29T13:37:58.438Z,43.39
2023-08-29T13:40:25.313Z,43.53
2023-08-29T13:42:53.420Z,43.37
2023-08-29T13:45:20.701Z,43.03
2023-08-29T13:47:48.129Z,43.25
2023-08-29T13:50:15.220Z,43.48
2023-08-29T13:52:42.089Z,43.27
2023-08-29T13:55:09.325Z,43.28
2023-08-29T13:57:36.304Z,43.19
2023-08-29T14:00:08.700Z,43.39
2023-08-29T14:02:41.775Z,43.22
2023-08-29T14:05:09.557Z,43.12
2023-08-29T14:07:37.581Z,43.19
2023-08-29T14:10:05.211Z,43.34
2023-08-29T14:12:32.147Z,43.12
2023-08-29T14:14:59.071Z,43.28
2023-08-29T14:17:26.165Z,43.22
2023-08-29T14:19:53.877Z,43.38
2023-08-29T14:22:20.791Z,43.03
2023-08-29T14:24:48.210Z,43.02
2023-08-29T14:27:15.162Z,42.96
2023-08-29T14:29:42.039Z,43.04
2023-08-29T14:32:09.003Z,42.95
2023-08-29T14:34:35.886Z,42.93
2023-08-29T14:37:03.144Z,43.08
2023-08-29T14:39:30.015Z,43.09
2023-08-29T14:41:56.991Z,42.97
2023-08-29T14:44:24.033Z,43.11
2023-08-29T14:46:51.048Z,42.90
2023-08-29T14:49:18.127Z,42.91
2023-08-29T14:51:45.211Z,43.03
2023-08-29T14:54:12.234Z,42.70
2023-08-29T14:56:39.360Z,43.01
2023-08-29T14:59:06.663Z,42.81
2023-08-29T15:01:37.720Z,42.65
2023-08-29T15:04:06.535Z,42.74
2023-08-29T15:06:34.237Z,42.83
2023-08-29T15:09:01.142Z,42.72
2023-08-29T15:11:28.142Z,42.82
2023-08-29T15:13:55.051Z,42.48
2023-08-29T15:16:22.027Z,42.64
2023-08-29T15:18:48.989Z,42.59
2023-08-29T15:21:18.094Z,42.53
2023-08-29T15:23:46.847Z,42.56
2023-08-29T15:26:13.837Z,42.72
2023-08-29T15:28:40.817Z,42.69
2023-08-29T15:31:07.753Z,42.64
2023-08-29T15:33:35.125Z,42.58
2023-08-29T15:36:02.014Z,42.73
2023-08-29T15:38:30.189Z,42.56
2023-08-29T15:40:57.239Z,42.75
2023-08-29T15:43:27.324Z,42.85
2023-08-29T15:45:56.209Z,42.40
2023-08-29T15:48:23.416Z,42.52
2023-08-29T15:50:55.230Z,42.59
2023-08-29T15:53:22.376Z,42.54
2023-08-29T15:55:49.425Z,42.32
2023-08-29T15:58:17.897Z,42.37
2023-08-29T16:00:44.890Z,42.40
2023-08-29T16:03:12.024Z,42.59
2023-08-29T16:05:39.049Z,42.71
2023-08-29T16:08:06.513Z,42.66
2023-08-29T16:10:33.710Z,42.62
2023-08-29T16:13:00.989Z,42.56
2023-08-29T16:15:28.158Z,42.64
2023-08-29T16:17:55.114Z,42.63
2023-08-29T16:20:22.279Z,42.64
2023-08-29T16:22:49.296Z,42.37
2023-08-29T16:25:16.379Z,42.84
2023-08-29T16:27:43.585Z,42.45
2023-08-29T16:30:12.064Z,42.64
2023-08-29T16:32:42.960Z,42.67
2023-08-29T16:35:09.921Z,42.59
2023-08-29T16:37:40.866Z,43.00
2023-08-29T16:40:08.997Z,42.78
2023-08-29T16:42:36.539Z,42.60
2023-08-29T16:45:05.445Z,42.70
2023-08-29T16:47:32.792Z,42.75
2023-08-29T16:49:59.701Z,42.56
2023-08-29T16:52:28.110Z,42.89
2023-08-29T16:54:55.177Z,42.76
2023-08-29T16:57:22.223Z,42.64
2023-08-29T17:00:10.999Z,42.43
2023-08-29T17:02:38.623Z,42.87
2023-08-29T17:05:06.176Z,42.75
2023-08-29T17:07:33.133Z,42.77
2023-08-29T17:10:00.797Z,42.88
2023-08-29T17:12:28.247Z,42.71
2023-08-29T17:14:55.137Z,42.86
2023-08-29T17:17:23.158Z,42.73
2023-08-29T17:19:50.334Z,42.59
2023-08-29T17:22:17.313Z,42.92
2023-08-29T17:24:44.294Z,42.72
2023-08-29T17:27:11.155Z,42.61
2023-08-29T17:29:38.056Z,42.79
2023-08-29T17:32:05.723Z,42.79
2023-08-29T17:34:52.974Z,42.60
2023-08-29T17:37:43.704Z,42.58
2023-08-29T17:40:31.018Z,42.46
2023-08-29T17:43:18.152Z,42.72
2023-08-29T17:46:07.140Z,42.81
2023-08-29T17:48:54.418Z,42.60
2023-08-29T17:51:41.583Z,42.84
2023-08-29T17:54:29.496Z,42.72
2023-08-29T17:57:16.625Z,42.80
2023-08-29T18:00:06.105Z,42.65
2023-08-29T18:02:53.279Z,42.92
2023-08-29T18:05:55.130Z,42.79
2023-08-29T18:08:44.002Z,43.07
2023-08-29T18:11:31.290Z,43.01
2023-08-29T18:14:18.481Z,43.13
2023-08-29T18:17:05.613Z,43.24
2023-08-29T18:19:52.806Z,43.22
2023-08-29T18:22:39.903Z,43.00
2023-08-29T18:25:08.103Z,43.48
2023-08-29T18:27:36.306Z,43.18
2023-08-29T18:30:04.472Z,43.32
2023-08-29T18:32:32.865Z,43.12
2023-08-29T18:35:12.996Z,43.06
2023-08-29T18:37:39.882Z,43.11
2023-08-29T18:40:08.390Z,43.29
2023-08-29T18:42:35.393Z,43.34
2023-08-29T18:45:21.033Z,43.25
2023-08-29T18:48:09.472Z,43.36
2023-08-29T18:50:57.431Z,43.20
2023-08-29T18:53:44.580Z,43.33
2023-08-29T18:56:31.750Z,43.29
2023-08-29T18:59:20.142Z,42.98
2023-08-29T19:02:07.488Z,42.14
2023-08-29T19:04:54.687Z,41.73
2023-08-29T19:07:44.368Z,41.94
2023-08-29T19:10:31.958Z,42.29
2023-08-29T19:13:19.098Z,42.34
2023-08-29T19:16:06.277Z,42.52
2023-08-29T19:18:53.451Z,42.30
2023-08-29T19:21:40.639Z,42.56
2023-08-29T19:24:27.826Z,42.65
2023-08-29T19:27:22.662Z,42.42
2023-08-29T19:30:14.893Z,42.42
2023-08-29T19:33:04.858Z,42.70
2023-08-29T19:35:52.253Z,42.40
2023-08-29T19:38:41.474Z,42.28
2023-08-29T19:41:28.678Z,42.50
2023-08-29T19:44:17.484Z,42.10
2023-08-29T19:47:06.854Z,42.21
2023-08-29T19:49:54.568Z,42.13
2023-08-29T19:52:42.133Z,41.95
2023-08-29T19:55:30.721Z,42.36
2023-08-29T19:58:18.709Z,41.96
2023-08-29T20:01:07.309Z,42.08
2023-08-29T20:03:54.585Z,42.01
2023-08-29T20:06:43.296Z,42.11
2023-08-29T20:09:30.630Z,42.14
2023-08-29T20:12:17.787Z,42.04
2023-08-29T20:15:05.501Z,41.95
2023-08-29T20:17:52.878Z,42.12
2023-08-29T20:20:42.045Z,42.18
2023-08-29T20:23:29.711Z,41.95
2023-08-29T20:26:18.603Z,42.20
2023-08-29T20:29:05.847Z,42.19
2023-08-29T20:31:52.989Z,41.83
2023-08-29T20:34:41.143Z,41.99
2023-08-29T20:37:28.823Z,42.26
2023-08-29T20:40:16.028Z,41.91
2023-08-29T20:43:04.677Z,42.10
2023-08-29T20:45:51.851Z,42.00
2023-08-29T20:48:39.031Z,41.84
2023-08-29T20:51:26.321Z,42.15
2023-08-29T20:54:13.486Z,41.89
2023-08-29T20:57:00.587Z,42.13
2023-08-29T20:59:47.908Z,42.07
2023-08-29T21:02:36.480Z,42.11
2023-08-29T21:05:23.869Z,41.69
2023-08-29T21:08:11.331Z,41.87
2023-08-29T21:10:58.666Z,41.72
2023-08-29T21:13:45.855Z,41.66
2023-08-29T21:16:33.083Z,41.93
2023-08-29T21:19:20.655Z,41.80
2023-08-29T21:22:07.761Z,41.82
2023-08-29T21:24:54.909Z,41.74
2023-08-29T21:27:42.018Z,41.84
2023-08-29T21:30:29.109Z,41.57
2023-08-29T21:33:16.386Z,41.63
2023-08-29T21:36:04.274Z,41.81
2023-08-29T21:38:51.421Z,41.63
2023-08-29T21:41:41.142Z,41.65
2023-08-29T21:44:28.320Z,41.59
2023-08-29T21:47:15.403Z,41.51
2023-08-29T21:50:02.562Z,41.58
2023-08-29T21:52:49.669Z,41.48
2023-08-29T21:55:39.477Z,41.17
2023-08-29T21:58:26.580Z,41.28
2023-08-29T22:01:13.759Z,41.21
2023-08-29T22:04:00.871Z,41.30
2023-08-29T22:06:48.365Z,41.22
2023-08-29T22:09:35.466Z,40.90
2023-08-29T22:12:22.572Z,40.93
2023-08-29T22:15:11.037Z,40.66
2023-08-29T22:17:58.255Z,40.84
2023-08-29T22:20:45.440Z,40.97
2023-08-29T22:23:33.707Z,41.04
2023-08-29T22:26:20.851Z,40.93
2023-08-29T22:29:07.968Z,40.68
2023-08-29T22:31:55.169Z,40.69
2023-08-29T22:34:42.971Z,40.72
2023-08-29T22:37:30.085Z,40.81
2023-08-29T22:40:18.080Z,40.69
2023-08-29T22:43:06.101Z,40.76
2023-08-29T22:45:56.422Z,40.74
2023-08-29T22:48:43.540Z,40.30
2023-08-29T22:51:30.674Z,40.49
2023-08-29T22:54:17.854Z,40.56
2023-08-29T22:57:06.408Z,40.62
2023-08-29T22:59:53.555Z,40.54
2023-08-29T23:02:40.907Z,40.66
2023-08-29T23:05:28.221Z,40.63
2023-08-29T23:08:15.437Z,40.70
2023-08-29T23:11:02.815Z,40.41
2023-08-29T23:13:50.215Z,40.53
2023-08-29T23:16:38.432Z,40.42
2023-08-29T23:19:26.727Z,40.46
2023-08-29T23:22:13.871Z,40.34
2023-08-29T23:25:05.435Z,40.56
2023-08-29T23:27:52.890Z,40.34
2023-08-29T23:30:40.039Z,40.33
2023-08-29T23:33:27.351Z,40.54
2023-08-29T23:36:14.493Z,40.31
2023-08-29T23:39:01.598Z,40.45
2023-08-29T23:41:49.037Z,40.49
2023-08-29T23:44:36.265Z,40.35
2023-08-29T23:47:23.442Z,40.51
2023-08-29T23:50:11.570Z,40.33
2023-08-29T23:53:00.187Z,40.39
2023-08-29T23:55:47.448Z,40.30
2023-08-29T23:58:34.634Z,40.04
